Time;durP1;ratioP1;P1;durP2;ratioP2;P2;SDS_P1;SDS_P2;PMS_P1;PMS_P2;Temp;Humidity;BMP_temperature;BMP_pressure;BME280_temperature;BME280_humidity;BME280_pressure;Samples;Min_cycle;Max_cycle;Signal;HPM_P1;HPM_P2
2023/12/07 00:00:32;;;;;;;24.77;12.65;;;1.90;99.90;;;;;;5039354;28;20078;-63
2023/12/07 00:02:59;;;;;;;26.77;14.95;;;1.90;99.90;;;;;;5039221;28;20497;-64
2023/12/07 00:05:25;;;;;;;27.73;12.77;;;1.90;99.90;;;;;;5039698;28;20066;-64
2023/12/07 00:07:50;;;;;;;25.92;13.40;;;1.80;99.90;;;;;;5036633;28;20033;-64
2023/12/07 00:10:16;;;;;;;22.80;12.35;;;1.80;99.90;;;;;;5031658;28;20348;-63
2023/12/07 00:12:41;;;;;;;29.17;13.30;;;1.80;99.90;;;;;;5038516;28;20041;-63
2023/12/07 00:15:07;;;;;;;25.23;13.85;;;1.80;99.90;;;;;;5029685;28;20433;-64
2023/12/07 00:17:33;;;;;;;25.20;11.52;;;1.80;99.90;;;;;;5033708;28;20083;-64
2023/12/07 00:19:58;;;;;;;24.65;13.23;;;1.80;99.90;;;;;;5032261;28;20082;-63
2023/12/07 00:22:25;;;;;;;25.55;13.27;;;1.70;99.90;;;;;;5030901;28;20021;-63
2023/12/07 00:24:51;;;;;;;21.73;11.65;;;1.70;99.90;;;;;;5036777;28;20021;-64
2023/12/07 00:27:16;;;;;;;26.08;13.30;;;1.70;99.90;;;;;;5034708;28;20093;-64
2023/12/07 00:29:42;;;;;;;23.90;11.80;;;1.70;99.90;;;;;;5039006;28;20372;-63
2023/12/07 00:32:07;;;;;;;22.50;11.20;;;1.70;99.90;;;;;;5037581;28;20075;-63
2023/12/07 00:34:32;;;;;;;26.13;12.45;;;1.80;99.90;;;;;;5039005;28;20454;-64
2023/12/07 00:36:58;;;;;;;25.20;12.70;;;1.70;99.90;;;;;;5034482;28;20037;-64
2023/12/07 00:39:23;;;;;;;24.30;12.40;;;1.70;99.90;;;;;;5040813;28;20021;-64
2023/12/07 00:41:49;;;;;;;26.98;13.05;;;1.70;99.90;;;;;;5038701;28;20028;-64
2023/12/07 00:44:14;;;;;;;22.33;12.23;;;1.70;99.90;;;;;;5035385;28;20409;-66
2023/12/07 00:46:40;;;;;;;27.83;14.90;;;1.70;99.90;;;;;;5031424;28;20108;-65
2023/12/07 00:49:06;;;;;;;23.33;11.75;;;1.70;99.90;;;;;;5031854;28;20043;-65
2023/12/07 00:51:31;;;;;;;22.30;11.18;;;1.70;99.90;;;;;;5033192;28;20435;-64
2023/12/07 00:53:58;;;;;;;21.85;11.40;;;1.70;99.90;;;;;;5034603;28;20548;-63
2023/12/07 00:56:23;;;;;;;24.45;12.60;;;1.70;99.90;;;;;;5030354;28;20048;-64
2023/12/07 00:58:50;;;;;;;24.17;12.27;;;1.70;99.90;;;;;;5032394;28;20033;-65
2023/12/07 01:01:16;;;;;;;23.27;11.88;;;1.70;99.90;;;;;;5037165;28;20032;-64
2023/12/07 01:03:41;;;;;;;24.73;13.00;;;1.70;99.90;;;;;;5033318;28;20033;-63
2023/12/07 01:06:07;;;;;;;24.40;13.05;;;1.70;99.90;;;;;;5037213;28;20109;-64
2023/12/07 01:08:33;;;;;;;22.20;11.10;;;1.70;99.90;;;;;;5035083;28;20021;-64
2023/12/07 01:10:58;;;;;;;23.08;12.68;;;1.70;99.90;;;;;;5037534;28;20095;-64
2023/12/07 01:13:24;;;;;;;27.05;14.23;;;1.70;99.90;;;;;;5032745;28;20025;-63
2023/12/07 01:15:50;;;;;;;24.10;12.68;;;1.70;99.90;;;;;;5036764;28;20029;-64
2023/12/07 01:18:15;;;;;;;27.60;15.57;;;1.70;99.90;;;;;;5036129;28;20234;-63
2023/12/07 01:20:41;;;;;;;25.08;13.48;;;1.70;99.90;;;;;;5038150;28;20437;-63
2023/12/07 01:23:08;;;;;;;24.90;13.40;;;1.60;99.90;;;;;;5033989;28;20036;-64
2023/12/07 01:25:34;;;;;;;23.92;13.70;;;1.60;99.90;;;;;;5035283;28;20045;-63
2023/12/07 01:28:00;;;;;;;24.80;13.77;;;1.60;99.90;;;;;;5036951;28;20167;-63
2023/12/07 01:30:25;;;;;;;23.73;12.40;;;1.60;99.90;;;;;;5033908;28;20049;-64
2023/12/07 01:32:51;;;;;;;23.10;13.07;;;1.60;99.90;;;;;;5036963;28;20502;-63
2023/12/07 01:35:16;;;;;;;18.10;10.82;;;1.60;99.90;;;;;;5034993;28;20028;-64
2023/12/07 01:37:42;;;;;;;21.17;11.45;;;1.60;99.90;;;;;;5037776;28;20025;-63
2023/12/07 01:40:10;;;;;;;22.13;11.93;;;1.60;99.90;;;;;;5037427;28;20025;-64
2023/12/07 01:42:37;;;;;;;22.90;11.55;;;1.70;99.90;;;;;;5030200;28;20379;-64
2023/12/07 01:45:03;;;;;;;23.38;12.52;;;1.70;99.90;;;;;;5036280;28;20048;-64
2023/12/07 01:47:28;;;;;;;25.92;13.27;;;1.70;99.90;;;;;;5033645;28;20025;-64
2023/12/07 01:49:54;;;;;;;24.33;12.48;;;1.70;99.90;;;;;;5036588;28;20033;-64
2023/12/07 01:52:22;;;;;;;23.50;11.80;;;1.70;99.90;;;;;;5038476;28;20017;-64
2023/12/07 01:54:48;;;;;;;24.80;12.80;;;1.70;99.90;;;;;;5039304;28;20044;-64
2023/12/07 01:57:14;;;;;;;21.02;10.90;;;1.70;99.90;;;;;;5034010;28;20580;-66
2023/12/07 01:59:39;;;;;;;21.73;11.27;;;1.70;99.90;;;;;;5033334;28;20457;-65
2023/12/07 02:02:05;;;;;;;24.52;11.55;;;1.80;99.90;;;;;;5037449;28;20028;-67
2023/12/07 02:04:30;;;;;;;22.25;11.27;;;1.80;99.90;;;;;;5036568;28;20104;-64
2023/12/07 02:06:59;;;;;;;22.27;12.57;;;1.70;99.90;;;;;;5034347;28;20100;-64
2023/12/07 02:09:25;;;;;;;20.98;11.27;;;1.70;99.90;;;;;;5041296;28;20029;-64
2023/12/07 02:11:50;;;;;;;23.67;12.02;;;1.80;99.90;;;;;;5043034;28;20402;-64
2023/12/07 02:14:18;;;;;;;24.30;12.98;;;1.80;99.90;;;;;;5041499;28;20103;-64
2023/12/07 02:16:47;;;;;;;20.75;10.65;;;1.80;99.90;;;;;;5041102;28;20510;-65
2023/12/07 02:19:12;;;;;;;21.60;11.18;;;1.80;99.90;;;;;;5039781;28;20025;-64
2023/12/07 02:21:44;;;;;;;23.80;12.15;;;1.80;99.90;;;;;;5040986;28;20037;-64
2023/12/07 02:24:16;;;;;;;21.33;11.57;;;1.80;99.90;;;;;;5041245;28;20025;-64
2023/12/07 02:26:41;;;;;;;22.92;12.05;;;1.80;99.90;;;;;;5041058;28;20021;-63
2023/12/07 02:29:07;;;;;;;26.50;12.73;;;1.80;99.90;;;;;;5040826;28;20021;-64
2023/12/07 02:31:33;;;;;;;26.08;12.38;;;1.90;99.90;;;;;;5041083;28;20630;-64
2023/12/07 02:33:59;;;;;;;25.35;12.27;;;1.80;99.90;;;;;;5039536;28;20036;-64
2023/12/07 02:36:28;;;;;;;20.73;11.05;;;1.90;99.90;;;;;;5035485;28;20395;-64
2023/12/07 02:38:58;;;;;;;24.02;10.95;;;1.80;99.90;;;;;;5038947;28;20025;-65
2023/12/07 02:41:25;;;;;;;23.67;12.43;;;1.90;99.90;;;;;;5034205;28;20082;-64
2023/12/07 02:43:51;;;;;;;21.50;12.18;;;1.80;99.90;;;;;;5036754;28;20017;-65
2023/12/07 02:46:17;;;;;;;19.52;10.90;;;1.90;99.90;;;;;;5040876;28;20029;-65
2023/12/07 02:48:43;;;;;;;25.80;13.68;;;1.90;99.90;;;;;;5040593;28;20037;-65
2023/12/07 02:51:08;;;;;;;22.80;13.25;;;1.90;99.90;;;;;;5039076;28;20033;-65
2023/12/07 02:53:34;;;;;;;24.92;12.73;;;1.90;99.90;;;;;;5041379;28;20094;-65
2023/12/07 02:55:59;;;;;;;21.27;11.80;;;1.80;99.90;;;;;;5038040;28;20434;-66
2023/12/07 02:58:25;;;;;;;18.70;10.68;;;1.90;99.90;;;;;;5040507;28;20063;-66
2023/12/07 03:00:50;;;;;;;23.13;12.45;;;1.80;99.90;;;;;;5040794;28;20029;-66
2023/12/07 03:03:16;;;;;;;22.95;12.05;;;1.80;99.90;;;;;;5039107;28;20021;-66
2023/12/07 03:05:41;;;;;;;24.73;11.85;;;1.90;99.90;;;;;;5040356;28;20065;-66
2023/12/07 03:08:07;;;;;;;20.23;11.38;;;1.90;99.90;;;;;;5040302;28;20044;-65
2023/12/07 03:10:32;;;;;;;23.52;11.52;;;1.90;99.90;;;;;;5042000;28;20044;-66
2023/12/07 03:12:58;;;;;;;18.48;10.80;;;1.90;99.90;;;;;;5039782;28;20032;-66
2023/12/07 03:15:23;;;;;;;24.92;12.27;;;1.90;99.90;;;;;;5040135;28;20055;-66
2023/12/07 03:17:50;;;;;;;22.55;11.10;;;1.90;99.90;;;;;;5040193;28;20044;-66
2023/12/07 03:20:15;;;;;;;19.85;9.88;;;1.90;99.90;;;;;;5040278;28;20040;-59
2023/12/07 03:22:41;;;;;;;15.48;9.43;;;1.90;99.90;;;;;;5040064;28;20028;-57
2023/12/07 03:25:07;;;;;;;18.90;9.73;;;1.90;99.90;;;;;;5041709;28;20433;-57
2023/12/07 03:27:32;;;;;;;18.92;9.27;;;1.90;99.90;;;;;;5039954;28;20041;-57
2023/12/07 03:30:00;;;;;;;21.63;11.85;;;1.90;99.90;;;;;;5039474;28;20116;-58
2023/12/07 03:32:26;;;;;;;22.27;11.85;;;1.90;99.90;;;;;;5031667;28;20029;-57
2023/12/07 03:34:51;;;;;;;19.20;10.85;;;1.90;99.90;;;;;;5033882;28;20184;-57
2023/12/07 03:37:17;;;;;;;22.50;12.45;;;1.90;99.90;;;;;;5031352;28;20021;-57
2023/12/07 03:39:42;;;;;;;20.08;10.45;;;1.90;99.90;;;;;;5039810;28;20497;-58
2023/12/07 03:42:08;;;;;;;24.27;11.23;;;1.90;99.90;;;;;;5041496;28;20075;-58
2023/12/07 03:44:33;;;;;;;20.63;11.68;;;1.90;99.90;;;;;;5037462;28;20025;-57
2023/12/07 03:46:59;;;;;;;24.60;12.52;;;1.90;99.90;;;;;;5032025;28;20184;-58
2023/12/07 03:49:25;;;;;;;23.08;12.70;;;1.90;99.90;;;;;;5036799;28;20033;-59
2023/12/07 03:51:50;;;;;;;24.27;13.32;;;1.90;99.90;;;;;;5034326;28;20044;-57
2023/12/07 03:54:16;;;;;;;24.02;13.65;;;1.90;99.90;;;;;;5038165;28;20417;-56
2023/12/07 03:56:41;;;;;;;20.00;11.90;;;1.80;99.90;;;;;;5035365;28;20048;-57
2023/12/07 03:59:07;;;;;;;23.20;12.00;;;1.80;99.90;;;;;;5038728;28;20442;-56
2023/12/07 04:01:32;;;;;;;22.73;12.88;;;1.80;99.90;;;;;;5037001;28;20496;-57
2023/12/07 04:04:01;;;;;;;21.58;11.38;;;1.80;99.90;;;;;;5037848;28;20040;-57
2023/12/07 04:06:26;;;;;;;24.55;12.70;;;1.90;99.90;;;;;;5032140;28;20036;-56
2023/12/07 04:08:52;;;;;;;24.98;11.98;;;1.90;99.90;;;;;;5033464;28;20025;-57
2023/12/07 04:11:21;;;;;;;20.10;10.55;;;1.90;99.90;;;;;;5035504;28;20030;-58
2023/12/07 04:13:49;;;;;;;20.08;9.95;;;1.90;99.90;;;;;;5038114;28;20507;-57
2023/12/07 04:16:15;;;;;;;22.00;11.80;;;1.90;99.90;;;;;;5036787;28;20028;-60
2023/12/07 04:18:41;;;;;;;23.67;12.65;;;1.90;99.90;;;;;;5034199;28;20029;-56
2023/12/07 04:21:06;;;;;;;21.30;11.93;;;1.90;99.90;;;;;;5036208;28;20430;-55
2023/12/07 04:23:32;;;;;;;23.50;13.27;;;1.90;99.90;;;;;;5032071;28;20159;-56
2023/12/07 04:26:00;;;;;;;22.35;12.18;;;1.90;99.90;;;;;;5033291;28;20013;-57
2023/12/07 04:28:26;;;;;;;23.25;12.63;;;1.90;99.90;;;;;;5031170;28;20026;-57
2023/12/07 04:30:52;;;;;;;24.75;13.23;;;1.80;99.90;;;;;;5035645;28;20052;-56
2023/12/07 04:33:17;;;;;;;20.00;11.57;;;1.80;99.90;;;;;;5034191;28;20475;-56
2023/12/07 04:35:43;;;;;;;27.17;13.52;;;1.80;99.90;;;;;;5031879;28;20114;-57
2023/12/07 04:38:12;;;;;;;26.05;13.50;;;1.80;99.90;;;;;;5025860;28;20028;-57
2023/12/07 04:40:37;;;;;;;24.50;13.18;;;1.80;99.90;;;;;;5033736;28;20205;-58
2023/12/07 04:43:06;;;;;;;21.13;11.65;;;1.80;99.90;;;;;;5042345;28;20419;-58
2023/12/07 04:45:32;;;;;;;26.55;13.02;;;1.80;99.90;;;;;;5038537;28;20579;-58
2023/12/07 04:48:00;;;;;;;20.90;11.70;;;1.80;99.90;;;;;;5036466;28;20077;-58
2023/12/07 04:50:29;;;;;;;21.80;12.88;;;1.70;99.90;;;;;;5039266;28;20029;-57
2023/12/07 04:52:54;;;;;;;22.85;12.05;;;1.80;99.90;;;;;;5041266;28;20021;-56
2023/12/07 04:55:20;;;;;;;23.15;12.05;;;1.80;99.90;;;;;;5038145;28;20587;-57
2023/12/07 04:57:45;;;;;;;20.45;11.20;;;1.80;99.90;;;;;;5040235;28;20037;-58
2023/12/07 05:00:14;;;;;;;20.48;11.45;;;1.80;99.90;;;;;;5034446;28;20028;-58
2023/12/07 05:02:42;;;;;;;19.88;10.32;;;1.80;99.90;;;;;;5035784;28;20036;-58
2023/12/07 05:05:08;;;;;;;22.40;11.70;;;1.90;99.90;;;;;;5034198;28;20025;-57
2023/12/07 05:07:37;;;;;;;25.98;12.82;;;1.80;99.90;;;;;;5040216;28;20114;-57
2023/12/07 05:10:03;;;;;;;21.05;11.40;;;1.80;99.90;;;;;;5036152;28;20094;-58
2023/12/07 05:12:28;;;;;;;18.83;10.80;;;1.90;99.90;;;;;;5037219;28;20459;-58
2023/12/07 05:14:54;;;;;;;23.48;12.68;;;1.80;99.90;;;;;;5041063;28;20096;-57
2023/12/07 05:17:19;;;;;;;20.77;11.43;;;1.90;99.90;;;;;;5038794;28;20107;-57
2023/12/07 05:19:48;;;;;;;22.65;12.05;;;1.90;99.90;;;;;;5039859;28;20025;-58
2023/12/07 05:22:17;;;;;;;23.45;12.15;;;1.90;99.90;;;;;;5030884;28;20025;-57
2023/12/07 05:24:42;;;;;;;23.95;12.98;;;1.90;99.90;;;;;;5035484;28;20104;-58
2023/12/07 05:27:08;;;;;;;26.80;13.65;;;1.90;99.90;;;;;;5038089;28;20104;-57
2023/12/07 05:29:37;;;;;;;24.02;12.63;;;1.90;99.90;;;;;;5039847;28;20402;-57
2023/12/07 05:32:03;;;;;;;23.98;13.57;;;1.90;99.90;;;;;;5038513;28;20508;-61
2023/12/07 05:34:29;;;;;;;28.65;13.68;;;1.90;99.90;;;;;;5033893;28;20026;-57
2023/12/07 05:36:55;;;;;;;23.17;12.88;;;2.00;99.90;;;;;;5040897;28;20083;-58
2023/12/07 05:39:20;;;;;;;21.40;11.18;;;2.00;99.90;;;;;;5042165;28;20405;-58
2023/12/07 05:41:46;;;;;;;27.65;15.05;;;2.00;99.90;;;;;;5038414;28;20037;-58
2023/12/07 05:44:21;;;;;;;23.35;13.52;;;2.00;99.90;;;;;;5042081;28;20100;-58
2023/12/07 05:46:49;;;;;;;24.40;14.05;;;2.00;99.90;;;;;;5036437;28;20422;-58
2023/12/07 05:49:15;;;;;;;28.92;14.98;;;2.00;99.90;;;;;;5042496;28;20024;-58
2023/12/07 05:51:41;;;;;;;26.02;14.82;;;1.90;99.90;;;;;;5034764;28;20033;-58
2023/12/07 05:54:06;;;;;;;23.92;14.00;;;1.90;99.90;;;;;;5041429;28;20021;-58
2023/12/07 05:56:32;;;;;;;23.05;13.23;;;1.90;99.90;;;;;;5043235;28;20045;-58
2023/12/07 05:59:00;;;;;;;24.50;13.35;;;1.80;99.90;;;;;;5037595;28;20101;-59
2023/12/07 06:01:29;;;;;;;29.70;15.15;;;1.80;99.90;;;;;;5039209;28;20228;-58
2023/12/07 06:03:55;;;;;;;28.90;15.75;;;1.80;99.90;;;;;;5036393;28;20017;-58
2023/12/07 06:06:21;;;;;;;27.83;15.45;;;1.80;99.90;;;;;;5037317;28;20043;-58
2023/12/07 06:08:47;;;;;;;28.08;12.88;;;1.80;99.90;;;;;;5033921;28;20347;-57
2023/12/07 06:11:13;;;;;;;26.17;13.45;;;1.80;99.90;;;;;;5034326;28;20039;-58
2023/12/07 06:13:38;;;;;;;23.60;13.15;;;1.80;99.90;;;;;;5033499;28;20025;-57
2023/12/07 06:16:04;;;;;;;28.60;15.27;;;1.80;99.90;;;;;;5034701;28;20163;-58
2023/12/07 06:18:33;;;;;;;24.33;13.30;;;1.80;99.90;;;;;;5034931;28;20054;-58
2023/12/07 06:21:03;;;;;;;20.60;11.63;;;1.80;99.90;;;;;;5035928;28;20100;-58
2023/12/07 06:23:28;;;;;;;23.15;12.18;;;1.80;99.90;;;;;;5041088;28;20110;-58
2023/12/07 06:25:54;;;;;;;22.23;12.02;;;1.90;99.90;;;;;;5040874;28;20074;-59
2023/12/07 06:28:19;;;;;;;27.90;14.63;;;1.80;99.90;;;;;;5041088;28;20040;-57
2023/12/07 06:30:45;;;;;;;29.00;13.88;;;1.80;99.90;;;;;;5040854;28;20025;-58
2023/12/07 06:33:14;;;;;;;27.42;13.95;;;1.80;99.90;;;;;;5042725;28;20518;-59
2023/12/07 06:35:39;;;;;;;25.48;12.95;;;1.80;99.90;;;;;;5029480;28;20505;-65
2023/12/07 06:38:04;;;;;;;21.13;11.57;;;1.90;99.90;;;;;;5026868;28;20032;-65
2023/12/07 06:40:31;;;;;;;29.40;14.45;;;1.90;99.90;;;;;;5032513;28;20561;-65
2023/12/07 06:42:57;;;;;;;31.08;15.80;;;1.90;99.90;;;;;;5035394;28;20013;-65
2023/12/07 06:45:22;;;;;;;27.98;14.63;;;1.90;99.90;;;;;;5033718;28;20040;-59
2023/12/07 06:47:47;;;;;;;27.42;13.77;;;1.90;99.90;;;;;;5034281;28;20021;-59
2023/12/07 06:50:13;;;;;;;23.42;11.32;;;2.00;99.90;;;;;;5035588;28;20663;-59
2023/12/07 06:52:40;;;;;;;22.73;12.23;;;2.00;99.90;;;;;;5032262;28;20517;-59
2023/12/07 06:55:06;;;;;;;24.85;12.20;;;2.00;99.90;;;;;;5031400;28;20575;-59
2023/12/07 06:57:32;;;;;;;25.45;13.07;;;2.10;99.90;;;;;;5040318;28;20099;-58
2023/12/07 06:59:57;;;;;;;32.42;15.32;;;2.10;99.90;;;;;;5040377;28;20029;-59
2023/12/07 07:02:23;;;;;;;28.02;13.95;;;2.10;99.90;;;;;;5042188;28;20032;-59
2023/12/07 07:04:49;;;;;;;29.95;15.15;;;2.20;99.90;;;;;;5041367;28;20017;-59
2023/12/07 07:07:15;;;;;;;20.67;11.40;;;2.10;99.90;;;;;;5033555;28;20025;-59
2023/12/07 07:09:40;;;;;;;29.08;13.43;;;2.10;99.90;;;;;;5033356;28;20033;-59
2023/12/07 07:12:06;;;;;;;25.58;13.70;;;2.10;99.90;;;;;;5030081;28;20232;-58
2023/12/07 07:14:31;;;;;;;30.23;14.82;;;2.10;99.90;;;;;;5032941;28;20040;-59
2023/12/07 07:16:57;;;;;;;29.83;14.45;;;2.10;99.90;;;;;;5037926;28;20098;-60
2023/12/07 07:19:22;;;;;;;32.25;15.13;;;2.10;99.90;;;;;;5035886;28;20519;-59
2023/12/07 07:21:48;;;;;;;31.50;14.98;;;2.10;99.90;;;;;;5038544;28;20036;-59
2023/12/07 07:24:14;;;;;;;26.40;13.55;;;2.20;99.90;;;;;;5039886;28;20058;-59
2023/12/07 07:26:40;;;;;;;26.85;13.75;;;2.10;99.90;;;;;;5039868;28;20033;-58
2023/12/07 07:29:06;;;;;;;29.80;15.32;;;2.10;99.90;;;;;;5039909;28;20037;-58
2023/12/07 07:31:31;;;;;;;30.52;14.75;;;2.20;99.90;;;;;;5041441;28;20035;-59
2023/12/07 07:33:57;;;;;;;31.20;14.05;;;2.20;99.90;;;;;;5039834;28;20050;-59
2023/12/07 07:36:22;;;;;;;28.25;13.07;;;2.20;99.90;;;;;;5033872;28;20112;-58
2023/12/07 07:38:48;;;;;;;27.73;14.25;;;2.20;99.90;;;;;;5039494;28;20037;-59
2023/12/07 07:41:14;;;;;;;35.30;16.23;;;2.20;99.90;;;;;;5038268;28;20109;-59
2023/12/07 07:43:39;;;;;;;32.33;15.05;;;2.30;99.90;;;;;;5039623;28;20119;-59
2023/12/07 07:46:05;;;;;;;29.38;15.13;;;2.30;99.90;;;;;;5039652;28;20120;-58
2023/12/07 07:48:30;;;;;;;28.98;14.63;;;2.30;99.90;;;;;;5041398;28;20047;-59
2023/12/07 07:50:57;;;;;;;29.85;14.93;;;2.30;99.90;;;;;;5039310;28;20033;-59
2023/12/07 07:53:23;;;;;;;31.63;16.00;;;2.30;99.90;;;;;;5039522;28;20052;-59
2023/12/07 07:55:48;;;;;;;37.65;18.02;;;2.30;99.90;;;;;;5038277;28;20092;-59
2023/12/07 07:58:13;;;;;;;29.92;15.15;;;2.30;99.90;;;;;;5039550;28;20505;-58
2023/12/07 08:00:39;;;;;;;32.13;16.17;;;2.30;99.90;;;;;;5039266;28;20028;-60
2023/12/07 08:03:05;;;;;;;33.30;15.65;;;2.30;99.90;;;;;;5039470;28;20091;-59
2023/12/07 08:05:31;;;;;;;32.88;16.83;;;2.30;99.90;;;;;;5041123;28;20498;-59
2023/12/07 08:07:57;;;;;;;31.17;18.35;;;2.40;99.90;;;;;;5032114;28;20025;-59
2023/12/07 08:10:22;;;;;;;37.92;17.45;;;2.40;99.90;;;;;;5033593;28;20090;-59
2023/12/07 08:12:48;;;;;;;31.05;14.95;;;2.40;99.90;;;;;;5038955;28;20031;-58
2023/12/07 08:15:13;;;;;;;36.72;16.38;;;2.40;99.90;;;;;;5039123;28;20552;-59
2023/12/07 08:17:42;;;;;;;32.10;15.13;;;2.40;99.90;;;;;;5038163;28;20032;-59
2023/12/07 08:20:12;;;;;;;35.80;17.02;;;2.40;99.90;;;;;;5037340;28;20029;-59
2023/12/07 08:22:38;;;;;;;43.10;19.48;;;2.50;99.90;;;;;;5037527;28;20025;-59
2023/12/07 08:25:05;;;;;;;38.17;17.38;;;2.50;99.90;;;;;;5036984;28;20059;-59
2023/12/07 08:27:32;;;;;;;30.55;15.82;;;2.50;99.90;;;;;;5039161;28;20044;-60
2023/12/07 08:29:58;;;;;;;40.20;19.15;;;2.50;99.90;;;;;;5038339;28;20048;-60
2023/12/07 08:32:25;;;;;;;32.10;16.85;;;2.50;99.90;;;;;;5039075;28;20025;-58
2023/12/07 08:34:51;;;;;;;43.65;19.75;;;2.60;99.90;;;;;;5038869;28;20028;-58
2023/12/07 08:37:16;;;;;;;40.33;19.23;;;2.50;99.90;;;;;;5035886;28;20183;-59
2023/12/07 08:39:42;;;;;;;34.67;17.95;;;2.60;99.90;;;;;;5038989;28;20102;-59
2023/12/07 08:42:08;;;;;;;49.42;21.17;;;2.60;99.90;;;;;;5040616;28;20580;-59
2023/12/07 08:44:34;;;;;;;40.22;18.92;;;2.60;99.90;;;;;;5039231;28;20499;-59
2023/12/07 08:46:59;;;;;;;36.67;17.83;;;2.60;99.90;;;;;;5038528;28;20068;-59
2023/12/07 08:49:25;;;;;;;44.65;20.25;;;2.70;99.90;;;;;;5038998;28;20033;-59
2023/12/07 08:51:52;;;;;;;41.53;20.70;;;2.70;99.90;;;;;;5038760;28;20021;-59
2023/12/07 08:54:18;;;;;;;46.38;19.20;;;2.80;99.90;;;;;;5038528;28;20071;-59
2023/12/07 08:56:45;;;;;;;39.35;18.67;;;2.80;99.90;;;;;;5038931;28;20105;-58
2023/12/07 08:59:10;;;;;;;32.65;16.23;;;2.90;99.90;;;;;;5040515;28;20017;-60
2023/12/07 09:01:36;;;;;;;40.28;17.98;;;2.90;99.90;;;;;;5037238;28;20032;-59
2023/12/07 09:04:01;;;;;;;31.13;15.50;;;2.90;99.90;;;;;;5038397;28;20029;-59
2023/12/07 09:06:27;;;;;;;29.35;14.93;;;2.90;99.90;;;;;;5036917;28;20021;-59
2023/12/07 09:08:52;;;;;;;35.13;18.23;;;2.90;99.90;;;;;;5038253;28;20040;-59
2023/12/07 09:11:18;;;;;;;33.80;16.35;;;2.90;99.90;;;;;;5038797;28;20065;-59
2023/12/07 09:13:44;;;;;;;36.05;17.13;;;2.90;99.90;;;;;;5039584;28;20025;-59
2023/12/07 09:16:09;;;;;;;30.30;15.63;;;2.90;99.90;;;;;;5038317;28;20021;-59
2023/12/07 09:18:38;;;;;;;36.75;17.08;;;2.90;99.90;;;;;;5038483;28;20708;-59
2023/12/07 09:21:04;;;;;;;40.47;17.90;;;2.90;99.90;;;;;;5033248;28;20024;-59
2023/12/07 09:23:29;;;;;;;30.48;14.68;;;2.90;99.90;;;;;;5038614;28;20503;-65
2023/12/07 09:25:55;;;;;;;33.90;16.58;;;3.00;99.90;;;;;;5038194;28;20107;-61
2023/12/07 09:28:20;;;;;;;37.50;18.77;;;3.00;99.90;;;;;;5043500;28;20056;-62
2023/12/07 09:30:46;;;;;;;37.60;17.77;;;3.00;99.90;;;;;;5037900;28;20059;-61
2023/12/07 09:33:11;;;;;;;39.55;16.83;;;3.10;99.90;;;;;;5037779;28;20021;-62
2023/12/07 09:35:38;;;;;;;40.05;19.02;;;3.10;99.90;;;;;;5041806;28;20195;-61
2023/12/07 09:38:04;;;;;;;33.90;16.95;;;3.10;99.90;;;;;;5032153;28;20025;-62
2023/12/07 09:40:30;;;;;;;40.10;18.70;;;3.10;99.90;;;;;;5037775;28;20111;-61
2023/12/07 09:42:56;;;;;;;30.10;16.50;;;3.10;99.90;;;;;;5043627;28;20100;-62
2023/12/07 09:45:22;;;;;;;37.65;17.83;;;3.20;99.90;;;;;;5041492;28;20726;-63
2023/12/07 09:47:49;;;;;;;37.80;17.58;;;3.20;99.90;;;;;;5041585;28;20102;-62
2023/12/07 09:50:22;;;;;;;82.78;35.33;;;3.20;99.90;;;;;;5041342;28;20053;-62
2023/12/07 09:52:50;;;;;;;50.92;25.13;;;3.20;99.90;;;;;;5040295;28;20025;-62
2023/12/07 09:55:17;;;;;;;47.63;22.42;;;3.20;99.90;;;;;;5040195;28;20441;-62
2023/12/07 09:57:43;;;;;;;45.80;20.75;;;3.20;99.90;;;;;;5039842;28;20036;-61
2023/12/07 10:00:13;;;;;;;41.90;18.65;;;3.20;99.90;;;;;;5038839;28;20032;-61
2023/12/07 10:02:41;;;;;;;44.55;19.20;;;3.20;99.90;;;;;;5041304;28;20029;-61
2023/12/07 10:05:07;;;;;;;37.95;18.33;;;3.30;99.90;;;;;;5033081;28;20026;-61
2023/12/07 10:07:36;;;;;;;39.47;19.10;;;3.30;99.90;;;;;;5043139;28;20138;-62
2023/12/07 10:10:03;;;;;;;38.13;16.85;;;3.30;99.90;;;;;;5039640;28;20128;-62
2023/12/07 10:12:29;;;;;;;38.20;17.60;;;3.30;99.90;;;;;;5038656;28;20482;-63
2023/12/07 10:14:54;;;;;;;33.80;17.40;;;3.30;99.90;;;;;;5041347;28;20029;-63
2023/12/07 10:17:20;;;;;;;32.40;15.68;;;3.30;99.90;;;;;;5041398;28;20021;-62
2023/12/07 10:19:45;;;;;;;34.08;16.45;;;3.30;99.90;;;;;;5040244;28;20025;-62
2023/12/07 10:22:15;;;;;;;36.60;17.80;;;3.30;99.90;;;;;;5041310;28;20482;-62
2023/12/07 10:24:41;;;;;;;46.33;20.05;;;3.30;99.90;;;;;;5041324;28;20104;-62
2023/12/07 10:27:07;;;;;;;44.63;19.95;;;3.30;99.90;;;;;;5043332;28;20091;-62
2023/12/07 10:29:37;;;;;;;38.33;17.52;;;3.30;99.90;;;;;;5041164;28;20040;-63
2023/12/07 10:32:04;;;;;;;45.25;19.60;;;3.30;99.90;;;;;;5041313;28;20032;-62
2023/12/07 10:34:35;;;;;;;40.17;17.55;;;3.30;99.90;;;;;;5041128;28;20033;-62
2023/12/07 10:37:01;;;;;;;41.42;17.88;;;3.30;99.90;;;;;;5035168;28;20052;-62
2023/12/07 10:39:26;;;;;;;39.17;19.52;;;3.30;99.90;;;;;;5039805;28;20525;-62
2023/12/07 10:41:55;;;;;;;42.05;18.60;;;3.30;99.90;;;;;;5041072;28;20025;-63
2023/12/07 10:44:26;;;;;;;46.20;20.15;;;3.30;99.90;;;;;;5039815;28;20029;-62
2023/12/07 10:46:52;;;;;;;40.28;18.40;;;3.20;99.90;;;;;;5040877;28;20112;-58
2023/12/07 10:49:21;;;;;;;39.10;16.67;;;3.20;99.90;;;;;;5040732;28;20154;-58
2023/12/07 10:52:00;;;;;;;41.40;18.33;;;3.30;99.90;;;;;;5040818;28;20028;-58
2023/12/07 10:54:35;;;;;;;39.95;18.42;;;3.30;99.90;;;;;;5039018;28;20025;-58
2023/12/07 10:57:04;;;;;;;41.40;18.48;;;3.20;99.90;;;;;;5040556;28;20037;-58
2023/12/07 10:59:32;;;;;;;40.75;17.40;;;3.20;99.90;;;;;;5040661;28;20765;-58
2023/12/07 11:02:01;;;;;;;44.63;19.98;;;3.20;99.90;;;;;;5040732;28;20036;-58
2023/12/07 11:04:27;;;;;;;44.95;20.00;;;3.30;99.90;;;;;;5040638;28;20032;-59
2023/12/07 11:06:57;;;;;;;35.17;17.75;;;3.30;99.90;;;;;;5043615;28;20025;-58
2023/12/07 11:09:28;;;;;;;39.15;18.27;;;3.30;99.90;;;;;;5036144;28;20579;-59
2023/12/07 11:12:23;;;;;;;46.63;19.75;;;3.40;99.90;;;;;;5042218;28;20021;-58
2023/12/07 11:14:48;;;;;;;36.65;16.85;;;3.40;99.90;;;;;;5040297;28;20422;-58
2023/12/07 11:17:15;;;;;;;43.70;17.77;;;3.40;99.90;;;;;;5041419;28;20149;-58
2023/12/07 11:19:41;;;;;;;36.75;16.77;;;3.40;99.90;;;;;;5040406;28;20029;-58
2023/12/07 11:22:11;;;;;;;39.03;17.15;;;3.50;99.90;;;;;;5041912;28;20017;-59
2023/12/07 11:24:37;;;;;;;40.05;17.05;;;3.50;99.90;;;;;;5036150;28;20099;-58
2023/12/07 11:27:03;;;;;;;35.65;16.30;;;3.50;99.90;;;;;;5040758;28;20163;-58
2023/12/07 11:29:29;;;;;;;38.70;17.75;;;3.50;99.90;;;;;;5040157;28;20037;-57
2023/12/07 11:32:03;;;;;;;34.70;15.60;;;3.50;99.90;;;;;;5041984;28;20071;-59
2023/12/07 11:34:35;;;;;;;34.78;16.85;;;3.50;99.90;;;;;;5041819;28;20044;-58
2023/12/07 11:37:02;;;;;;;33.50;15.55;;;3.50;99.90;;;;;;5036709;28;20052;-58
2023/12/07 11:39:29;;;;;;;38.80;18.27;;;3.50;99.90;;;;;;5040337;28;20040;-58
2023/12/07 11:41:58;;;;;;;33.97;16.75;;;3.50;99.90;;;;;;5037741;28;20112;-58
2023/12/07 11:44:37;;;;;;;35.70;16.23;;;3.50;99.90;;;;;;5035709;28;20103;-58
2023/12/07 11:47:07;;;;;;;36.38;17.05;;;3.50;99.90;;;;;;5036787;28;20017;-58
2023/12/07 11:49:32;;;;;;;37.17;17.58;;;3.50;99.90;;;;;;5040996;28;20032;-58
2023/12/07 11:52:11;;;;;;;34.97;17.02;;;3.50;99.90;;;;;;5041307;28;20555;-58
2023/12/07 11:54:41;;;;;;;35.58;17.42;;;3.50;99.90;;;;;;5036506;28;20036;-58
2023/12/07 11:57:07;;;;;;;33.30;16.67;;;3.50;99.90;;;;;;5039736;28;20402;-58
2023/12/07 11:59:33;;;;;;;33.15;15.50;;;3.50;99.90;;;;;;5043224;28;20029;-59
2023/12/07 12:02:02;;;;;;;34.03;15.82;;;3.50;99.90;;;;;;5041595;28;20024;-59
2023/12/07 12:04:28;;;;;;;42.53;17.58;;;3.50;99.90;;;;;;5035328;28;20371;-58
2023/12/07 12:06:54;;;;;;;36.85;16.77;;;3.50;99.90;;;;;;5040410;28;20040;-58
2023/12/07 12:09:19;;;;;;;33.25;15.90;;;3.50;99.90;;;;;;5040547;28;20017;-58
2023/12/07 12:11:49;;;;;;;38.20;17.58;;;3.50;99.90;;;;;;5039406;28;20029;-59
2023/12/07 12:14:18;;;;;;;33.80;14.82;;;3.50;99.90;;;;;;5039277;28;20025;-58
2023/12/07 12:16:49;;;;;;;36.17;16.15;;;3.60;99.90;;;;;;5035920;28;20081;-58
2023/12/07 12:19:15;;;;;;;34.42;16.10;;;3.60;99.90;;;;;;5039267;28;20048;-57
2023/12/07 12:21:40;;;;;;;33.38;15.43;;;3.60;99.90;;;;;;5039126;28;20051;-58
2023/12/07 12:24:08;;;;;;;32.55;15.57;;;3.60;99.90;;;;;;5040957;28;20021;-58
2023/12/07 12:26:36;;;;;;;34.22;16.00;;;3.60;99.90;;;;;;5032923;28;20721;-58
2023/12/07 12:29:02;;;;;;;31.55;15.57;;;3.60;99.90;;;;;;5040010;28;20154;-58
2023/12/07 12:31:29;;;;;;;36.40;15.35;;;3.60;99.90;;;;;;5039606;28;20037;-59
2023/12/07 12:33:55;;;;;;;30.35;15.23;;;3.60;99.90;;;;;;5032225;28;20022;-59